Thursday, October 30, 2014
13:03 UTC
  |  Log In   |  Register Free
Airport Search:

Live Oak County Airport
(8T6)

Live Oak County Airport Diagram
No Airport Diagram Available

FAA data valid effective September 18, 2014 - November 13, 2014 (unless otherwise noted).

 
 
 
 
 
 
 
 
 
 
 
 
 
 

Current Aviation Weather for Live Oak County Airport (8T6)

METAR data is unavailable for 8T6. The nearest METAR location is at KBEA (17.2 nm SE from 8T6).

The most recent METAR observation for KBEA was updated at: 1208
METAR Summary (Translated METAR)
KBEA
301155Z AUTO 06008KT 3SM BR OVC003 20/20 A3008 RMK AO2 T01960196 10215 20191
(17.2 nm SE from 8T6)
KNOG
301204Z AUTO 05006KT 10SM SCT003 19/19 A3008 RMK AO2 T01940189 $
(27.9 nm SE from 8T6)
TAF Summary (Translated TAF)
KALI
(39.3 nm SW from KBEA)
301120Z 3012/3112 VRB03KT 5SM BR FEW020 FM301500 09006KT P6SM SCT040 FM310300 12008KT P6SM FEW015 SCT060
  Airport Weather Conditions for 8T6

Current weather conditions are
not available for 8T6


The nearest NOAA weather station
is at BEA, (17.2 nm SE from 8T6)
  
 Current Weather at BEA
67° F
Fog/Mist
Northeast winds at 9.2 mph
BEA NOAA Radar

Pressure: 30.08 in
Humidity: 100%
Wind: Northeast at 9.2 MPH (8 KT)
Dew Point: 67.3°F
Visibility: 3.00 mi


Airport Weather Forecast for 8T6

Translated METAR and TAF for KBEA
Translated METAR for KBEA (1258 UTC 30 October 2014)
found at http://aviationweather.gov/adds/metars/
 
METAR text: KBEA 301235Z AUTO 07007KT 1 1/2SM BR OVC001 20/20 A3009 RMK AO2 T01950195
Conditions at: KBEA (BEEVILLE MUNI , TX, US) observed 1235 UTC 30 October 2014
Temperature: 19.5°C (67°F)
Dewpoint: 19.5°C (67°F) [RH = 100%]
Pressure (altimeter): 30.09 inches Hg (1019.0 mb)
Winds: from the ENE (70 degrees) at 8 MPH (7 knots; 3.6 m/s)
Visibility: 1.50 miles (2.41 km)
Ceiling: 100 feet AGL
Clouds: overcast cloud deck at 100 feet AGL
Weather: BR  (mist)
Translated TAF for KBEA

There is no translated TAF available for this airport

Find All Airport Services Find A Hotel Find A Rental Car Find A Golf Course Find A Restaurant $100 Hamburger



FBO's on the Field
FBO Company Facility Photos Services Transportation Aviation Fuel Prices: Prices include tax
Catering Weather Repair Courtesy Rental Type 100LL JetA JetA+ MOGAS 8087
 
Live Oak Co. Airport

This FBO has not yet been rated
FS:Avfuel
Last Updated: Oct-09
Login to update fuel prices
SS:
Contact Live Oak Co. AirportMore FBO Information
 
Add another FBO Facility Photos Catering Weather Repair Courtesy Rental Type 100LL JetA JetA+ MOGAS 8087
Services Transportation Aviation Fuel Prices: Prices include tax


model-print
model-print
model-print
model-print